sensor_id;sensor_type;location;lat;lon;timestamp;temperature;humidity
37086;DHT22;23001;45.952;12.676;2023-10-13T00:01:57;19.70;99.90
37086;DHT22;23001;45.952;12.676;2023-10-13T00:04:25;19.70;99.90
37086;DHT22;23001;45.952;12.676;2023-10-13T00:06:57;19.60;99.90
37086;DHT22;23001;45.952;12.676;2023-10-13T00:09:24;19.60;99.90
37086;DHT22;23001;45.952;12.676;2023-10-13T00:11:51;19.60;99.90
37086;DHT22;23001;45.952;12.676;2023-10-13T00:14:19;19.50;99.90
37086;DHT22;23001;45.952;12.676;2023-10-13T00:16:47;19.50;99.90
37086;DHT22;23001;45.952;12.676;2023-10-13T00:19:33;19.50;99.90
37086;DHT22;23001;45.952;12.676;2023-10-13T00:22:14;19.50;99.90
37086;DHT22;23001;45.952;12.676;2023-10-13T00:24:43;19.50;99.90
37086;DHT22;23001;45.952;12.676;2023-10-13T00:27:15;19.50;99.90
37086;DHT22;23001;45.952;12.676;2023-10-13T00:30:04;19.40;99.90
37086;DHT22;23001;45.952;12.676;2023-10-13T00:32:51;19.40;99.90
37086;DHT22;23001;45.952;12.676;2023-10-13T00:35:27;19.50;99.90
37086;DHT22;23001;45.952;12.676;2023-10-13T00:38:05;19.50;99.90
37086;DHT22;23001;45.952;12.676;2023-10-13T00:40:42;19.50;99.90
37086;DHT22;23001;45.952;12.676;2023-10-13T00:43:10;19.40;99.90
37086;DHT22;23001;45.952;12.676;2023-10-13T00:45:56;19.50;99.90
37086;DHT22;23001;45.952;12.676;2023-10-13T00:48:43;19.50;99.90
37086;DHT22;23001;45.952;12.676;2023-10-13T00:51:17;19.40;99.90
37086;DHT22;23001;45.952;12.676;2023-10-13T00:54:02;19.40;99.90
37086;DHT22;23001;45.952;12.676;2023-10-13T00:56:33;19.40;99.90
37086;DHT22;23001;45.952;12.676;2023-10-13T00:58:59;19.40;99.90
37086;DHT22;23001;45.952;12.676;2023-10-13T01:01:28;19.40;99.90
37086;DHT22;23001;45.952;12.676;2023-10-13T01:04:02;19.50;99.90
37086;DHT22;23001;45.952;12.676;2023-10-13T01:06:30;19.60;99.90
37086;DHT22;23001;45.952;12.676;2023-10-13T01:09:07;19.60;99.90
37086;DHT22;23001;45.952;12.676;2023-10-13T01:11:39;19.50;99.90
37086;DHT22;23001;45.952;12.676;2023-10-13T01:14:06;19.40;99.90
37086;DHT22;23001;45.952;12.676;2023-10-13T01:16:32;19.40;99.90
37086;DHT22;23001;45.952;12.676;2023-10-13T01:18:58;19.40;99.90
37086;DHT22;23001;45.952;12.676;2023-10-13T01:21:26;19.40;99.90
37086;DHT22;23001;45.952;12.676;2023-10-13T01:23:55;19.30;99.90
37086;DHT22;23001;45.952;12.676;2023-10-13T01:26:21;19.30;99.90
37086;DHT22;23001;45.952;12.676;2023-10-13T01:28:51;19.30;99.90
37086;DHT22;23001;45.952;12.676;2023-10-13T01:31:17;19.30;99.90
37086;DHT22;23001;45.952;12.676;2023-10-13T01:33:57;19.30;99.90
37086;DHT22;23001;45.952;12.676;2023-10-13T01:36:29;19.30;99.90
37086;DHT22;23001;45.952;12.676;2023-10-13T01:39:00;19.30;99.90
37086;DHT22;23001;45.952;12.676;2023-10-13T01:41:27;19.20;99.90
37086;DHT22;23001;45.952;12.676;2023-10-13T01:43:56;19.30;99.90
37086;DHT22;23001;45.952;12.676;2023-10-13T01:46:23;19.30;99.90
37086;DHT22;23001;45.952;12.676;2023-10-13T01:48:48;19.20;99.90
37086;DHT22;23001;45.952;12.676;2023-10-13T01:51:14;19.20;99.90
37086;DHT22;23001;45.952;12.676;2023-10-13T01:53:40;19.20;99.90
37086;DHT22;23001;45.952;12.676;2023-10-13T01:56:07;19.20;99.90
37086;DHT22;23001;45.952;12.676;2023-10-13T01:58:40;19.20;99.90
37086;DHT22;23001;45.952;12.676;2023-10-13T02:01:08;19.30;99.90
37086;DHT22;23001;45.952;12.676;2023-10-13T02:03:35;19.30;99.90
37086;DHT22;23001;45.952;12.676;2023-10-13T02:06:07;19.30;99.90
37086;DHT22;23001;45.952;12.676;2023-10-13T02:08:35;19.30;99.90
37086;DHT22;23001;45.952;12.676;2023-10-13T02:11:05;19.20;99.90
37086;DHT22;23001;45.952;12.676;2023-10-13T02:13:32;19.20;99.90
37086;DHT22;23001;45.952;12.676;2023-10-13T02:15:58;19.20;99.90
37086;DHT22;23001;45.952;12.676;2023-10-13T02:18:29;19.20;99.90
37086;DHT22;23001;45.952;12.676;2023-10-13T02:21:07;19.30;99.90
37086;DHT22;23001;45.952;12.676;2023-10-13T02:23:41;19.30;99.90
37086;DHT22;23001;45.952;12.676;2023-10-13T02:26:26;19.30;99.90
37086;DHT22;23001;45.952;12.676;2023-10-13T02:29:04;19.30;99.90
37086;DHT22;23001;45.952;12.676;2023-10-13T02:31:35;19.20;99.90
37086;DHT22;23001;45.952;12.676;2023-10-13T02:34:02;19.20;99.90
37086;DHT22;23001;45.952;12.676;2023-10-13T02:36:38;19.20;99.90
37086;DHT22;23001;45.952;12.676;2023-10-13T02:39:13;19.20;99.90
37086;DHT22;23001;45.952;12.676;2023-10-13T02:41:40;19.20;99.90
37086;DHT22;23001;45.952;12.676;2023-10-13T02:44:11;19.10;99.90
37086;DHT22;23001;45.952;12.676;2023-10-13T02:46:45;19.10;99.90
37086;DHT22;23001;45.952;12.676;2023-10-13T02:49:16;19.10;99.90
37086;DHT22;23001;45.952;12.676;2023-10-13T02:51:45;19.10;99.90
37086;DHT22;23001;45.952;12.676;2023-10-13T02:54:11;19.10;99.90
37086;DHT22;23001;45.952;12.676;2023-10-13T02:56:46;19.10;99.90
37086;DHT22;23001;45.952;12.676;2023-10-13T02:59:28;19.00;99.90
37086;DHT22;23001;45.952;12.676;2023-10-13T03:02:04;19.10;99.90
37086;DHT22;23001;45.952;12.676;2023-10-13T03:04:52;19.10;99.90
37086;DHT22;23001;45.952;12.676;2023-10-13T03:07:25;19.00;99.90
37086;DHT22;23001;45.952;12.676;2023-10-13T03:09:55;19.00;99.90
37086;DHT22;23001;45.952;12.676;2023-10-13T03:12:23;19.00;99.90
37086;DHT22;23001;45.952;12.676;2023-10-13T03:14:50;19.10;99.90
37086;DHT22;23001;45.952;12.676;2023-10-13T03:17:27;19.00;99.90
37086;DHT22;23001;45.952;12.676;2023-10-13T03:20:02;19.00;99.90
37086;DHT22;23001;45.952;12.676;2023-10-13T03:22:31;18.90;99.90
37086;DHT22;23001;45.952;12.676;2023-10-13T03:24:57;19.00;99.90
37086;DHT22;23001;45.952;12.676;2023-10-13T03:27:31;18.90;99.90
37086;DHT22;23001;45.952;12.676;2023-10-13T03:30:25;18.90;99.90
37086;DHT22;23001;45.952;12.676;2023-10-13T03:33:02;18.90;99.90
37086;DHT22;23001;45.952;12.676;2023-10-13T03:35:32;18.90;99.90
37086;DHT22;23001;45.952;12.676;2023-10-13T03:38:08;18.90;99.90
37086;DHT22;23001;45.952;12.676;2023-10-13T03:40:45;18.90;99.90
37086;DHT22;23001;45.952;12.676;2023-10-13T03:43:15;18.90;99.90
37086;DHT22;23001;45.952;12.676;2023-10-13T03:45:49;18.90;99.90
37086;DHT22;23001;45.952;12.676;2023-10-13T03:48:26;18.90;99.90
37086;DHT22;23001;45.952;12.676;2023-10-13T03:50:56;18.90;99.90
37086;DHT22;23001;45.952;12.676;2023-10-13T03:53:42;18.80;99.90
37086;DHT22;23001;45.952;12.676;2023-10-13T03:56:21;18.90;99.90
37086;DHT22;23001;45.952;12.676;2023-10-13T03:59:08;18.90;99.90
37086;DHT22;23001;45.952;12.676;2023-10-13T04:01:46;18.90;99.90
37086;DHT22;23001;45.952;12.676;2023-10-13T04:04:14;18.90;99.90
37086;DHT22;23001;45.952;12.676;2023-10-13T04:06:58;18.90;99.90
37086;DHT22;23001;45.952;12.676;2023-10-13T04:09:44;18.90;99.90
37086;DHT22;23001;45.952;12.676;2023-10-13T04:12:12;18.90;99.90
37086;DHT22;23001;45.952;12.676;2023-10-13T04:14:41;18.90;99.90
37086;DHT22;23001;45.952;12.676;2023-10-13T04:17:25;18.80;99.90
37086;DHT22;23001;45.952;12.676;2023-10-13T04:19:57;18.80;99.90
37086;DHT22;23001;45.952;12.676;2023-10-13T04:22:41;18.80;99.90
37086;DHT22;23001;45.952;12.676;2023-10-13T04:28:13;18.80;99.90
37086;DHT22;23001;45.952;12.676;2023-10-13T04:30:49;18.80;99.90
37086;DHT22;23001;45.952;12.676;2023-10-13T04:33:21;18.80;99.90
37086;DHT22;23001;45.952;12.676;2023-10-13T04:36:12;18.70;99.90
37086;DHT22;23001;45.952;12.676;2023-10-13T04:39:01;18.70;99.90
37086;DHT22;23001;45.952;12.676;2023-10-13T04:41:31;18.70;99.90
37086;DHT22;23001;45.952;12.676;2023-10-13T04:44:03;18.70;99.90
37086;DHT22;23001;45.952;12.676;2023-10-13T04:46:48;18.80;99.90
37086;DHT22;23001;45.952;12.676;2023-10-13T04:49:13;18.70;99.90
37086;DHT22;23001;45.952;12.676;2023-10-13T04:52:04;18.70;99.90
37086;DHT22;23001;45.952;12.676;2023-10-13T04:54:33;18.70;99.90
37086;DHT22;23001;45.952;12.676;2023-10-13T04:57:17;18.70;99.90
37086;DHT22;23001;45.952;12.676;2023-10-13T04:59:53;18.60;99.90
37086;DHT22;23001;45.952;12.676;2023-10-13T05:02:45;18.60;99.90
37086;DHT22;23001;45.952;12.676;2023-10-13T05:05:26;18.60;99.90
37086;DHT22;23001;45.952;12.676;2023-10-13T05:08:12;18.60;99.90
37086;DHT22;23001;45.952;12.676;2023-10-13T05:10:56;18.70;99.90
37086;DHT22;23001;45.952;12.676;2023-10-13T05:13:40;18.70;99.90
37086;DHT22;23001;45.952;12.676;2023-10-13T05:16:24;18.70;99.90
37086;DHT22;23001;45.952;12.676;2023-10-13T05:19:09;18.80;99.90
37086;DHT22;23001;45.952;12.676;2023-10-13T05:21:53;18.80;99.90
37086;DHT22;23001;45.952;12.676;2023-10-13T05:24:37;18.70;99.90
37086;DHT22;23001;45.952;12.676;2023-10-13T05:27:21;18.70;99.90
37086;DHT22;23001;45.952;12.676;2023-10-13T05:30:25;18.70;99.90
37086;DHT22;23001;45.952;12.676;2023-10-13T05:33:09;18.70;99.90
37086;DHT22;23001;45.952;12.676;2023-10-13T05:35:53;18.70;99.90
37086;DHT22;23001;45.952;12.676;2023-10-13T05:38:37;18.60;99.90
37086;DHT22;23001;45.952;12.676;2023-10-13T05:41:22;18.70;99.90
37086;DHT22;23001;45.952;12.676;2023-10-13T05:44:06;18.70;99.90
37086;DHT22;23001;45.952;12.676;2023-10-13T05:46:50;18.70;99.90
37086;DHT22;23001;45.952;12.676;2023-10-13T05:49:36;18.80;99.90
37086;DHT22;23001;45.952;12.676;2023-10-13T05:52:30;18.80;99.90
37086;DHT22;23001;45.952;12.676;2023-10-13T05:55:14;18.80;99.90
37086;DHT22;23001;45.952;12.676;2023-10-13T05:57:58;18.70;99.90
37086;DHT22;23001;45.952;12.676;2023-10-13T06:00:42;18.80;99.90
37086;DHT22;23001;45.952;12.676;2023-10-13T06:03:26;18.80;99.90
37086;DHT22;23001;45.952;12.676;2023-10-13T06:06:10;18.80;99.90
37086;DHT22;23001;45.952;12.676;2023-10-13T06:08:54;18.80;99.90
37086;DHT22;23001;45.952;12.676;2023-10-13T06:11:38;18.80;99.90
37086;DHT22;23001;45.952;12.676;2023-10-13T06:14:22;18.90;99.90
37086;DHT22;23001;45.952;12.676;2023-10-13T06:17:06;19.00;99.90
37086;DHT22;23001;45.952;12.676;2023-10-13T06:19:50;19.00;99.90
37086;DHT22;23001;45.952;12.676;2023-10-13T06:22:34;19.00;99.90
37086;DHT22;23001;45.952;12.676;2023-10-13T06:25:18;19.10;99.90
37086;DHT22;23001;45.952;12.676;2023-10-13T06:28:02;19.10;99.90
37086;DHT22;23001;45.952;12.676;2023-10-13T06:30:59;19.10;99.90
37086;DHT22;23001;45.952;12.676;2023-10-13T06:33:26;19.20;99.90
37086;DHT22;23001;45.952;12.676;2023-10-13T06:35:56;19.20;99.90
37086;DHT22;23001;45.952;12.676;2023-10-13T06:38:23;19.20;99.90
37086;DHT22;23001;45.952;12.676;2023-10-13T06:40:49;19.20;99.90
37086;DHT22;23001;45.952;12.676;2023-10-13T06:43:43;19.20;99.90
37086;DHT22;23001;45.952;12.676;2023-10-13T06:46:14;19.20;99.90
37086;DHT22;23001;45.952;12.676;2023-10-13T06:48:40;19.20;99.90
37086;DHT22;23001;45.952;12.676;2023-10-13T06:51:07;19.20;99.90
37086;DHT22;23001;45.952;12.676;2023-10-13T06:53:51;19.20;99.90
37086;DHT22;23001;45.952;12.676;2023-10-13T06:56:22;19.20;99.90
37086;DHT22;23001;45.952;12.676;2023-10-13T06:58:50;19.20;99.90
37086;DHT22;23001;45.952;12.676;2023-10-13T07:01:16;19.30;99.90
37086;DHT22;23001;45.952;12.676;2023-10-13T07:03:48;19.30;99.90
37086;DHT22;23001;45.952;12.676;2023-10-13T07:06:20;19.40;99.90
37086;DHT22;23001;45.952;12.676;2023-10-13T07:08:47;19.40;99.90
37086;DHT22;23001;45.952;12.676;2023-10-13T07:11:27;19.50;99.90
37086;DHT22;23001;45.952;12.676;2023-10-13T07:14:03;19.50;99.90
37086;DHT22;23001;45.952;12.676;2023-10-13T07:16:56;19.50;99.90
37086;DHT22;23001;45.952;12.676;2023-10-13T07:19:25;19.50;99.90
37086;DHT22;23001;45.952;12.676;2023-10-13T07:22:18;19.50;99.90
37086;DHT22;23001;45.952;12.676;2023-10-13T07:24:48;19.50;99.90
37086;DHT22;23001;45.952;12.676;2023-10-13T07:27:21;19.60;99.90
37086;DHT22;23001;45.952;12.676;2023-10-13T07:29:55;19.60;99.90
37086;DHT22;23001;45.952;12.676;2023-10-13T07:32:43;19.60;99.90
37086;DHT22;23001;45.952;12.676;2023-10-13T07:35:21;19.60;99.90
37086;DHT22;23001;45.952;12.676;2023-10-13T07:37:59;19.70;99.90
37086;DHT22;23001;45.952;12.676;2023-10-13T07:40:25;19.70;99.90
37086;DHT22;23001;45.952;12.676;2023-10-13T07:42:51;19.60;99.90
37086;DHT22;23001;45.952;12.676;2023-10-13T07:45:18;19.70;99.90
37086;DHT22;23001;45.952;12.676;2023-10-13T07:47:47;19.80;99.90
37086;DHT22;23001;45.952;12.676;2023-10-13T07:50:14;19.80;99.90
37086;DHT22;23001;45.952;12.676;2023-10-13T07:55:55;19.90;99.90
37086;DHT22;23001;45.952;12.676;2023-10-13T07:58:59;20.00;99.90
37086;DHT22;23001;45.952;12.676;2023-10-13T08:02:08;20.00;99.90
37086;DHT22;23001;45.952;12.676;2023-10-13T08:05:17;20.10;99.90
37086;DHT22;23001;45.952;12.676;2023-10-13T08:08:05;20.10;99.90
37086;DHT22;23001;45.952;12.676;2023-10-13T08:13:43;20.20;99.90
37086;DHT22;23001;45.952;12.676;2023-10-13T08:16:20;20.30;99.90
37086;DHT22;23001;45.952;12.676;2023-10-13T08:18:50;20.30;99.90
37086;DHT22;23001;45.952;12.676;2023-10-13T08:21:17;20.30;99.90
37086;DHT22;23001;45.952;12.676;2023-10-13T08:23:43;20.30;99.90
37086;DHT22;23001;45.952;12.676;2023-10-13T08:26:28;20.30;99.90
37086;DHT22;23001;45.952;12.676;2023-10-13T08:29:15;20.40;99.90
37086;DHT22;23001;45.952;12.676;2023-10-13T08:32:03;20.50;99.90
37086;DHT22;23001;45.952;12.676;2023-10-13T08:34:33;20.60;99.90
37086;DHT22;23001;45.952;12.676;2023-10-13T08:37:31;20.70;99.90
37086;DHT22;23001;45.952;12.676;2023-10-13T08:40:15;20.70;99.90
37086;DHT22;23001;45.952;12.676;2023-10-13T08:43:06;20.80;99.90
37086;DHT22;23001;45.952;12.676;2023-10-13T08:45:38;20.80;99.90
37086;DHT22;23001;45.952;12.676;2023-10-13T08:48:10;20.90;99.90
37086;DHT22;23001;45.952;12.676;2023-10-13T08:50:51;20.90;99.90
37086;DHT22;23001;45.952;12.676;2023-10-13T08:53:29;21.00;99.90
37086;DHT22;23001;45.952;12.676;2023-10-13T08:56:08;21.10;99.90
37086;DHT22;23001;45.952;12.676;2023-10-13T08:58:42;21.10;99.90
37086;DHT22;23001;45.952;12.676;2023-10-13T09:01:30;21.20;99.90
37086;DHT22;23001;45.952;12.676;2023-10-13T09:04:17;21.30;99.90
37086;DHT22;23001;45.952;12.676;2023-10-13T09:06:47;21.30;99.90
37086;DHT22;23001;45.952;12.676;2023-10-13T09:09:30;21.30;99.90
37086;DHT22;23001;45.952;12.676;2023-10-13T09:15:29;21.30;99.90
37086;DHT22;23001;45.952;12.676;2023-10-13T09:18:25;21.30;99.90
37086;DHT22;23001;45.952;12.676;2023-10-13T09:21:12;21.30;99.90
37086;DHT22;23001;45.952;12.676;2023-10-13T09:24:12;21.30;99.90
37086;DHT22;23001;45.952;12.676;2023-10-13T09:26:58;21.30;99.90
37086;DHT22;23001;45.952;12.676;2023-10-13T09:29:27;21.30;99.90
37086;DHT22;23001;45.952;12.676;2023-10-13T09:32:02;21.40;99.90
37086;DHT22;23001;45.952;12.676;2023-10-13T09:34:28;21.50;99.90
37086;DHT22;23001;45.952;12.676;2023-10-13T09:36:59;21.60;99.90
37086;DHT22;23001;45.952;12.676;2023-10-13T09:39:28;21.60;99.90
37086;DHT22;23001;45.952;12.676;2023-10-13T09:42:13;21.60;99.90
37086;DHT22;23001;45.952;12.676;2023-10-13T09:44:41;21.70;99.90
37086;DHT22;23001;45.952;12.676;2023-10-13T09:47:16;21.70;99.90
37086;DHT22;23001;45.952;12.676;2023-10-13T09:49:45;21.90;99.90
37086;DHT22;23001;45.952;12.676;2023-10-13T09:52:18;21.90;99.90
37086;DHT22;23001;45.952;12.676;2023-10-13T09:55:09;22.00;99.90
37086;DHT22;23001;45.952;12.676;2023-10-13T09:57:40;22.10;99.90
37086;DHT22;23001;45.952;12.676;2023-10-13T10:00:17;22.20;99.90
37086;DHT22;23001;45.952;12.676;2023-10-13T10:03:13;22.20;99.90
37086;DHT22;23001;45.952;12.676;2023-10-13T10:06:00;22.20;99.90
37086;DHT22;23001;45.952;12.676;2023-10-13T10:08:31;22.20;99.90
37086;DHT22;23001;45.952;12.676;2023-10-13T10:11:01;22.20;99.90
37086;DHT22;23001;45.952;12.676;2023-10-13T10:19:20;22.20;99.90
37086;DHT22;23001;45.952;12.676;2023-10-13T10:21:46;22.20;99.90
37086;DHT22;23001;45.952;12.676;2023-10-13T10:24:24;22.10;99.90
37086;DHT22;23001;45.952;12.676;2023-10-13T10:26:55;22.00;99.90
37086;DHT22;23001;45.952;12.676;2023-10-13T10:29:21;21.90;99.90
37086;DHT22;23001;45.952;12.676;2023-10-13T10:31:47;22.00;99.90
37086;DHT22;23001;45.952;12.676;2023-10-13T10:34:14;22.00;99.90
37086;DHT22;23001;45.952;12.676;2023-10-13T10:36:46;22.10;99.90
37086;DHT22;23001;45.952;12.676;2023-10-13T10:39:12;22.10;99.90
37086;DHT22;23001;45.952;12.676;2023-10-13T10:41:38;22.10;99.90
37086;DHT22;23001;45.952;12.676;2023-10-13T10:44:12;22.20;99.90
37086;DHT22;23001;45.952;12.676;2023-10-13T10:46:56;22.20;99.90
37086;DHT22;23001;45.952;12.676;2023-10-13T10:49:27;22.10;99.90
37086;DHT22;23001;45.952;12.676;2023-10-13T10:52:01;22.20;99.90
37086;DHT22;23001;45.952;12.676;2023-10-13T10:54:29;22.30;99.90
37086;DHT22;23001;45.952;12.676;2023-10-13T10:56:59;22.30;99.90
37086;DHT22;23001;45.952;12.676;2023-10-13T10:59:36;22.30;99.90
37086;DHT22;23001;45.952;12.676;2023-10-13T11:02:06;22.30;99.90
37086;DHT22;23001;45.952;12.676;2023-10-13T11:04:33;22.30;99.90
37086;DHT22;23001;45.952;12.676;2023-10-13T11:07:23;22.40;99.90
37086;DHT22;23001;45.952;12.676;2023-10-13T11:09:49;22.50;99.90
37086;DHT22;23001;45.952;12.676;2023-10-13T11:12:19;22.50;99.90
37086;DHT22;23001;45.952;12.676;2023-10-13T11:15:12;22.50;99.90
37086;DHT22;23001;45.952;12.676;2023-10-13T11:17:51;22.50;99.90
37086;DHT22;23001;45.952;12.676;2023-10-13T11:20:21;22.60;99.90
37086;DHT22;23001;45.952;12.676;2023-10-13T11:23:13;22.60;99.90
37086;DHT22;23001;45.952;12.676;2023-10-13T11:25:39;22.70;99.90
37086;DHT22;23001;45.952;12.676;2023-10-13T11:28:15;22.70;99.90
37086;DHT22;23001;45.952;12.676;2023-10-13T11:30:49;22.70;99.90
37086;DHT22;23001;45.952;12.676;2023-10-13T11:33:18;22.70;99.90
37086;DHT22;23001;45.952;12.676;2023-10-13T11:35:49;22.70;99.90
37086;DHT22;23001;45.952;12.676;2023-10-13T11:38:19;22.70;99.90
37086;DHT22;23001;45.952;12.676;2023-10-13T11:41:02;22.70;99.90
37086;DHT22;23001;45.952;12.676;2023-10-13T11:43:35;22.90;99.90
37086;DHT22;23001;45.952;12.676;2023-10-13T11:46:23;22.90;99.90
37086;DHT22;23001;45.952;12.676;2023-10-13T11:49:07;22.90;99.90
37086;DHT22;23001;45.952;12.676;2023-10-13T11:51:53;22.90;99.90
37086;DHT22;23001;45.952;12.676;2023-10-13T11:54:51;22.80;99.90
37086;DHT22;23001;45.952;12.676;2023-10-13T11:57:17;22.80;99.90
37086;DHT22;23001;45.952;12.676;2023-10-13T11:59:45;22.80;99.90
37086;DHT22;23001;45.952;12.676;2023-10-13T12:02:22;22.80;99.90
37086;DHT22;23001;45.952;12.676;2023-10-13T12:04:51;22.80;99.90
37086;DHT22;23001;45.952;12.676;2023-10-13T12:07:29;22.90;99.90
37086;DHT22;23001;45.952;12.676;2023-10-13T12:10:07;23.10;99.90
37086;DHT22;23001;45.952;12.676;2023-10-13T12:12:41;23.10;99.90
37086;DHT22;23001;45.952;12.676;2023-10-13T12:15:10;23.10;99.90
37086;DHT22;23001;45.952;12.676;2023-10-13T12:17:50;23.20;99.90
37086;DHT22;23001;45.952;12.676;2023-10-13T12:20:16;23.10;99.90
37086;DHT22;23001;45.952;12.676;2023-10-13T12:23:00;23.10;99.90
37086;DHT22;23001;45.952;12.676;2023-10-13T12:25:37;23.10;99.90
37086;DHT22;23001;45.952;12.676;2023-10-13T12:38:06;23.70;99.90
37086;DHT22;23001;45.952;12.676;2023-10-13T12:40:36;23.80;99.90
37086;DHT22;23001;45.952;12.676;2023-10-13T12:46:55;24.00;99.90
37086;DHT22;23001;45.952;12.676;2023-10-13T12:49:39;24.10;99.90
37086;DHT22;23001;45.952;12.676;2023-10-13T12:52:11;24.10;99.90
37086;DHT22;23001;45.952;12.676;2023-10-13T12:54:51;24.10;99.90
37086;DHT22;23001;45.952;12.676;2023-10-13T12:57:35;24.00;99.90
37086;DHT22;23001;45.952;12.676;2023-10-13T13:00:10;24.00;99.90
37086;DHT22;23001;45.952;12.676;2023-10-13T13:02:42;24.10;99.90
37086;DHT22;23001;45.952;12.676;2023-10-13T13:05:15;24.10;99.90
37086;DHT22;23001;45.952;12.676;2023-10-13T13:07:48;24.00;99.90
37086;DHT22;23001;45.952;12.676;2023-10-13T13:10:18;24.00;99.90
37086;DHT22;23001;45.952;12.676;2023-10-13T13:13:36;24.00;99.90
37086;DHT22;23001;45.952;12.676;2023-10-13T13:16:08;23.90;99.90
37086;DHT22;23001;45.952;12.676;2023-10-13T13:18:55;23.90;99.90
37086;DHT22;23001;45.952;12.676;2023-10-13T13:21:30;23.90;99.90
37086;DHT22;23001;45.952;12.676;2023-10-13T13:23:56;24.00;99.90
37086;DHT22;23001;45.952;12.676;2023-10-13T13:26:22;24.00;99.90
37086;DHT22;23001;45.952;12.676;2023-10-13T13:29:09;24.10;99.90
37086;DHT22;23001;45.952;12.676;2023-10-13T13:31:38;24.10;99.90
37086;DHT22;23001;45.952;12.676;2023-10-13T13:34:10;23.90;99.90
37086;DHT22;23001;45.952;12.676;2023-10-13T13:40:21;23.70;99.90
37086;DHT22;23001;45.952;12.676;2023-10-13T13:42:47;23.70;99.90
37086;DHT22;23001;45.952;12.676;2023-10-13T13:45:14;23.70;99.90
37086;DHT22;23001;45.952;12.676;2023-10-13T13:47:50;23.80;99.90
37086;DHT22;23001;45.952;12.676;2023-10-13T13:50:23;23.80;99.90
37086;DHT22;23001;45.952;12.676;2023-10-13T13:52:54;23.80;99.90
37086;DHT22;23001;45.952;12.676;2023-10-13T13:55:26;23.80;99.90
37086;DHT22;23001;45.952;12.676;2023-10-13T13:57:56;23.80;99.90
37086;DHT22;23001;45.952;12.676;2023-10-13T14:00:21;23.80;99.90
37086;DHT22;23001;45.952;12.676;2023-10-13T14:03:08;23.80;99.90
37086;DHT22;23001;45.952;12.676;2023-10-13T14:05:44;23.70;99.90
37086;DHT22;23001;45.952;12.676;2023-10-13T14:08:10;23.70;99.90
37086;DHT22;23001;45.952;12.676;2023-10-13T14:10:40;23.70;99.90
37086;DHT22;23001;45.952;12.676;2023-10-13T14:13:24;23.70;99.90
37086;DHT22;23001;45.952;12.676;2023-10-13T14:16:09;23.60;99.90
37086;DHT22;23001;45.952;12.676;2023-10-13T14:18:45;23.70;99.90
37086;DHT22;23001;45.952;12.676;2023-10-13T14:21:11;23.60;99.90
37086;DHT22;23001;45.952;12.676;2023-10-13T14:23:46;23.60;99.90
37086;DHT22;23001;45.952;12.676;2023-10-13T14:26:13;23.60;99.90
37086;DHT22;23001;45.952;12.676;2023-10-13T14:28:52;23.70;99.90
37086;DHT22;23001;45.952;12.676;2023-10-13T14:31:28;23.60;99.90
37086;DHT22;23001;45.952;12.676;2023-10-13T14:34:00;23.60;99.90
37086;DHT22;23001;45.952;12.676;2023-10-13T14:36:26;23.50;99.90
37086;DHT22;23001;45.952;12.676;2023-10-13T14:39:01;23.50;99.90
37086;DHT22;23001;45.952;12.676;2023-10-13T14:41:27;23.60;99.90
37086;DHT22;23001;45.952;12.676;2023-10-13T14:44:05;23.50;99.90
37086;DHT22;23001;45.952;12.676;2023-10-13T14:46:33;23.50;99.90
37086;DHT22;23001;45.952;12.676;2023-10-13T14:49:08;23.40;99.90
37086;DHT22;23001;45.952;12.676;2023-10-13T14:51:40;23.40;99.90
37086;DHT22;23001;45.952;12.676;2023-10-13T14:54:09;23.40;99.90
37086;DHT22;23001;45.952;12.676;2023-10-13T14:56:46;23.30;99.90
37086;DHT22;23001;45.952;12.676;2023-10-13T14:59:18;23.30;99.90
37086;DHT22;23001;45.952;12.676;2023-10-13T15:04:31;23.30;99.90
37086;DHT22;23001;45.952;12.676;2023-10-13T15:06:59;23.30;99.90
37086;DHT22;23001;45.952;12.676;2023-10-13T15:09:30;23.30;99.90
37086;DHT22;23001;45.952;12.676;2023-10-13T15:11:56;23.30;99.90
37086;DHT22;23001;45.952;12.676;2023-10-13T15:14:22;23.30;99.90
37086;DHT22;23001;45.952;12.676;2023-10-13T15:16:51;23.20;99.90
37086;DHT22;23001;45.952;12.676;2023-10-13T15:19:18;23.10;99.90
37086;DHT22;23001;45.952;12.676;2023-10-13T15:21:51;23.10;99.90
37086;DHT22;23001;45.952;12.676;2023-10-13T15:24:18;23.10;99.90
37086;DHT22;23001;45.952;12.676;2023-10-13T15:26:47;23.10;99.90
37086;DHT22;23001;45.952;12.676;2023-10-13T15:29:18;23.00;99.90
37086;DHT22;23001;45.952;12.676;2023-10-13T15:31:58;23.00;99.90
37086;DHT22;23001;45.952;12.676;2023-10-13T15:34:30;22.90;99.90
37086;DHT22;23001;45.952;12.676;2023-10-13T15:37:00;22.80;99.90
37086;DHT22;23001;45.952;12.676;2023-10-13T15:39:50;22.80;99.90
37086;DHT22;23001;45.952;12.676;2023-10-13T15:42:38;22.70;99.90
37086;DHT22;23001;45.952;12.676;2023-10-13T15:45:09;22.70;99.90
37086;DHT22;23001;45.952;12.676;2023-10-13T15:48:13;22.70;99.90
37086;DHT22;23001;45.952;12.676;2023-10-13T15:50:40;22.60;99.90
37086;DHT22;23001;45.952;12.676;2023-10-13T15:53:07;22.60;99.90
37086;DHT22;23001;45.952;12.676;2023-10-13T15:55:36;22.50;99.90
37086;DHT22;23001;45.952;12.676;2023-10-13T15:58:06;22.40;99.90
37086;DHT22;23001;45.952;12.676;2023-10-13T16:00:35;22.40;99.90
37086;DHT22;23001;45.952;12.676;2023-10-13T16:03:02;22.40;99.90
37086;DHT22;23001;45.952;12.676;2023-10-13T16:05:30;22.40;99.90
37086;DHT22;23001;45.952;12.676;2023-10-13T16:08:00;22.40;99.90
37086;DHT22;23001;45.952;12.676;2023-10-13T16:10:26;22.40;99.90
37086;DHT22;23001;45.952;12.676;2023-10-13T16:12:53;22.30;99.90
37086;DHT22;23001;45.952;12.676;2023-10-13T16:15:19;22.30;99.90
37086;DHT22;23001;45.952;12.676;2023-10-13T16:17:47;22.30;99.90
37086;DHT22;23001;45.952;12.676;2023-10-13T16:20:13;22.30;99.90
37086;DHT22;23001;45.952;12.676;2023-10-13T16:23:14;22.20;99.90
37086;DHT22;23001;45.952;12.676;2023-10-13T16:25:42;22.30;99.90
37086;DHT22;23001;45.952;12.676;2023-10-13T16:28:28;22.20;99.90
37086;DHT22;23001;45.952;12.676;2023-10-13T16:34:37;22.10;99.90
37086;DHT22;23001;45.952;12.676;2023-10-13T16:37:03;22.10;99.90
37086;DHT22;23001;45.952;12.676;2023-10-13T16:49:40;22.10;99.90
37086;DHT22;23001;45.952;12.676;2023-10-13T16:52:18;22.10;99.90
37086;DHT22;23001;45.952;12.676;2023-10-13T17:01:51;22.00;99.90
37086;DHT22;23001;45.952;12.676;2023-10-13T17:04:22;22.00;99.90
37086;DHT22;23001;45.952;12.676;2023-10-13T17:09:56;22.00;99.90